ROMMA est une association bénévole à but non lucratif. Votre soutien est indispensable : ADHERER à ROMMA ou FAIRE un DON

Trept - (38, Isère)

Plateau de Crémieu (265 m)   Longitude: 5° 19' 27" E   Latitude: 45° 41' 15"N Station partenaire n°94
 

Détail journalier du     <<     >>

Température Precipitation Humidité Pression Vent Dir Rafale Dir. rafale
Heure (°C) (mm) (%) (hPa) (km/h) (km/h)
01:00 15.707010172ONO6ONO
02:00 14.707510181NO8NNO
03:00 13.407910191NO6NO
04:00 12.608110192ONO6ONO
05:00 12.108110192OSO6ONO
06:00 11.108310202OSO6NO
07:00 10.208710211N5ONO
08:00 10.708610221N6ONO
09:00 12.907810232SO6OSO
10:00 15.207110233SO8OSO
11:00 18.206410233SO11OSO
12:00 20.105810245O19ONO
13:00 20.905210245NE21NE
14:00 23.104610246NE21NO
15:00 23.304410246NNE21N
16:00 23.104310246NNE19NE
17:00 22.604410247NNE21NE
18:00 22.404010245NE26NNO
19:00 21.604210256NNE18NE
20:00 19.405110252NNE10NO
21:00 17.606010261N6NE
22:00 15.906410261NNE8NE
23:00 14.7069102605ONO
minuit 13.507410271ONO5ONO

Graphique du 11-09-2019

 

Serveur OMMA